Time;durP1;ratioP1;P1;durP2;ratioP2;P2;SDS_P1;SDS_P2;PMS_P1;PMS_P2;Temp;Humidity;BMP_temperature;BMP_pressure;BME280_temperature;BME280_humidity;BME280_pressure;Samples;Min_cycle;Max_cycle;Signal;HPM_P1;HPM_P2
2022/12/15 00:39:40;;;;;;;;;;;-4.70;99.90;;;;;;5061380;28;19928;-78
2022/12/15 00:42:06;;;;;;;;;;;-4.70;99.90;;;;;;5072883;28;19928;-77
2022/12/15 00:44:31;;;;;;;;;;;-4.70;99.90;;;;;;5072668;28;19928;-77
2022/12/15 00:46:57;;;;;;;;;;;-4.60;99.90;;;;;;5065076;28;20335;-78
2022/12/15 01:22:18;;;;;;;;;;;-4.60;99.90;;;;;;5060882;28;19978;-77
2022/12/15 01:24:44;;;;;;;;;;;-4.60;99.90;;;;;;5072197;28;19955;-79
2022/12/15 01:27:09;;;;;;;;;;;-4.50;99.90;;;;;;5072518;28;19931;-77
2022/12/15 01:29:35;;;;;;;;;;;-4.50;99.90;;;;;;5070904;28;19924;-78
2022/12/15 01:32:00;;;;;;;;;;;-4.50;99.90;;;;;;5066325;28;20007;-78
2022/12/15 01:34:26;;;;;;;;;;;-4.50;99.90;;;;;;5067395;28;19932;-77
2022/12/15 01:36:51;;;;;;;;;;;-4.60;99.90;;;;;;5072243;28;19931;-77
2022/12/15 01:39:17;;;;;;;;;;;-4.60;99.90;;;;;;5066400;28;19931;-77
2022/12/15 01:41:42;;;;;;;;;;;-4.60;99.90;;;;;;5071461;28;21529;-78
2022/12/15 01:44:18;;;;;;;;;;;-4.60;99.90;;;;;;5068698;28;20433;-77
2022/12/15 01:46:44;;;;;;;;;;;-4.60;99.90;;;;;;5076006;28;19934;-78
2022/12/15 01:49:15;;;;;;;;;;;-4.60;99.90;;;;;;5060780;28;20287;-78
2022/12/15 01:51:47;;;;;;;;;;;-4.60;99.90;;;;;;5075181;28;19924;-77
2022/12/15 01:54:15;;;;;;;;;;;-4.60;99.90;;;;;;5069270;28;19934;-77
2022/12/15 01:56:49;;;;;;;;;;;-4.70;99.90;;;;;;5072255;28;20380;-77
2022/12/15 01:59:21;;;;;;;;;;;-4.60;99.90;;;;;;5076136;28;19964;-78
2022/12/15 02:01:47;;;;;;;;;;;-4.60;99.90;;;;;;5060920;28;19924;-77
2022/12/15 02:04:13;;;;;;;;;;;-4.60;99.90;;;;;;5070436;28;19985;-78
2022/12/15 02:06:39;;;;;;;;;;;-4.60;99.90;;;;;;5075291;28;19924;-77
2022/12/15 02:09:04;;;;;;;;;;;-4.60;99.90;;;;;;5065765;28;20414;-77
2022/12/15 02:11:45;;;;;;;;;;;-4.60;99.90;;;;;;5066499;28;19925;-77
2022/12/15 02:14:13;;;;;;;;;;;-4.60;99.90;;;;;;5075364;28;19925;-77
2022/12/15 02:16:50;;;;;;;;;;;-4.60;99.90;;;;;;5075536;28;20391;-77
2022/12/15 02:19:34;;;;;;;;;;;-4.60;99.90;;;;;;5075518;28;19925;-77
2022/12/15 02:22:15;;;;;;;;;;;-4.60;99.90;;;;;;5108267;28;20015;-77
2022/12/15 02:24:50;;;;;;;;;;;-4.60;99.90;;;;;;5063187;28;19930;-77
2022/12/15 02:27:27;;;;;;;;;;;-4.60;99.90;;;;;;5070113;28;19925;-77
2022/12/15 02:30:11;;;;;;;;;;;-4.60;99.90;;;;;;5074481;28;20004;-77
2022/12/15 02:32:45;;;;;;;;;;;-4.60;99.90;;;;;;5074782;28;19986;-77
2022/12/15 02:35:14;;;;;;;;;;;-4.50;99.90;;;;;;5063286;28;19936;-78
2022/12/15 02:37:40;;;;;;;;;;;-4.60;99.90;;;;;;5059208;28;19982;-77
2022/12/15 02:40:06;;;;;;;;;;;-4.60;99.90;;;;;;5070796;28;19985;-77
2022/12/15 02:42:34;;;;;;;;;;;-4.60;99.90;;;;;;5060731;28;19928;-77
2022/12/15 02:45:03;;;;;;;;;;;-4.60;99.90;;;;;;5064069;28;19932;-77
2022/12/15 02:47:49;;;;;;;;;;;-4.60;99.90;;;;;;5067962;28;20019;-77
2022/12/15 02:50:34;;;;;;;;;;;-4.60;99.90;;;;;;5055760;28;19961;-82
2022/12/15 02:53:18;;;;;;;;;;;-4.60;99.90;;;;;;5066453;28;20415;-77
2022/12/15 02:55:47;;;;;;;;;;;-4.60;99.90;;;;;;5063950;28;20015;-77
2022/12/15 02:58:22;;;;;;;;;;;-4.60;99.90;;;;;;5067414;28;19937;-77
2022/12/15 03:01:00;;;;;;;;;;;-4.60;99.90;;;;;;5064635;28;19928;-78
2022/12/15 03:03:27;;;;;;;;;;;-4.60;99.90;;;;;;5071020;28;19928;-77
2022/12/15 03:05:53;;;;;;;;;;;-4.60;99.90;;;;;;5075122;28;19935;-77
2022/12/15 03:08:22;;;;;;;;;;;-4.70;99.90;;;;;;5070161;28;19932;-77
2022/12/15 03:10:52;;;;;;;;;;;-4.70;99.90;;;;;;5100960;28;19928;-77
2022/12/15 03:13:17;;;;;;;;;;;-4.70;99.90;;;;;;5071464;28;19925;-78
2022/12/15 03:15:43;;;;;;;;;;;-4.70;99.90;;;;;;5065857;28;19989;-77
2022/12/15 03:18:08;;;;;;;;;;;-4.70;99.90;;;;;;5072697;28;19925;-79
2022/12/15 03:20:34;;;;;;;;;;;-4.60;99.90;;;;;;5073781;28;19924;-77
2022/12/15 03:23:00;;;;;;;;;;;-4.60;99.90;;;;;;5067846;28;20376;-77
2022/12/15 03:25:26;;;;;;;;;;;-4.60;99.90;;;;;;5064397;28;19925;-77
2022/12/15 03:27:52;;;;;;;;;;;-4.60;99.90;;;;;;5073624;28;20424;-77
2022/12/15 03:30:18;;;;;;;;;;;-4.60;99.90;;;;;;5059660;28;19931;-77
2022/12/15 03:32:43;;;;;;;;;;;-4.60;99.90;;;;;;5073028;28;20404;-79
2022/12/15 03:35:09;;;;;;;;;;;-4.60;99.90;;;;;;5070884;28;19924;-78
2022/12/15 03:37:35;;;;;;;;;;;-4.50;99.90;;;;;;5058210;28;20420;-78
2022/12/15 03:40:00;;;;;;;;;;;-4.60;99.90;;;;;;5073090;28;20007;-79
2022/12/15 03:45:10;;;;;;;;;;;-4.60;99.90;;;;;;5072279;28;20007;-78
2022/12/15 03:47:39;;;;;;;;;;;-4.50;99.90;;;;;;5069355;28;20012;-79
2022/12/15 03:50:05;;;;;;;;;;;-4.50;99.90;;;;;;5072581;28;20375;-77
2022/12/15 03:52:31;;;;;;;;;;;-4.50;99.90;;;;;;5072898;28;19969;-77
2022/12/15 03:54:56;;;;;;;;;;;-4.50;99.90;;;;;;5068816;28;19972;-77
2022/12/15 03:57:22;;;;;;;;;;;-4.50;99.90;;;;;;5070139;28;19925;-78
2022/12/15 03:59:47;;;;;;;;;;;-4.50;99.90;;;;;;5095492;28;19935;-79
2022/12/15 04:02:13;;;;;;;;;;;-4.50;99.90;;;;;;5064456;28;19935;-77
2022/12/15 04:04:38;;;;;;;;;;;-4.50;99.90;;;;;;5097002;28;19940;-77
2022/12/15 04:07:04;;;;;;;;;;;-4.50;99.90;;;;;;5077416;28;20456;-77
2022/12/15 04:09:29;;;;;;;;;;;-4.50;99.90;;;;;;5066651;28;19928;-77
2022/12/15 04:11:55;;;;;;;;;;;-4.50;99.90;;;;;;5067939;28;19967;-78
2022/12/15 04:14:20;;;;;;;;;;;-4.40;99.90;;;;;;5071673;28;20374;-78
2022/12/15 04:16:46;;;;;;;;;;;-4.40;99.90;;;;;;5072071;28;20020;-80
2022/12/15 04:21:56;;;;;;;;;;;-4.30;99.90;;;;;;5056334;28;19924;-77
2022/12/15 05:32:45;;;;;;;;;;;-4.50;99.90;;;;;;5075307;28;19924;-79
2022/12/15 05:35:11;;;;;;;;;;;-4.50;99.90;;;;;;5078725;28;20260;-79
2022/12/15 05:37:37;;;;;;;;;;;-4.50;99.90;;;;;;5063604;28;20039;-78
2022/12/15 05:40:03;;;;;;;;;;;-4.50;99.90;;;;;;5075567;28;19978;-78
2022/12/15 05:42:29;;;;;;;;;;;-4.60;99.90;;;;;;5106611;28;19925;-77
2022/12/15 05:44:55;;;;;;;;;;;-4.60;99.90;;;;;;5062396;28;19972;-78
2022/12/15 05:47:20;;;;;;;;;;;-4.50;99.90;;;;;;5068724;28;20000;-80
2022/12/15 05:49:46;;;;;;;;;;;-4.60;99.90;;;;;;5072218;28;19925;-78
2022/12/15 05:52:11;;;;;;;;;;;-4.60;99.90;;;;;;5071606;28;19981;-77
2022/12/15 05:54:37;;;;;;;;;;;-4.50;99.90;;;;;;5069014;28;20007;-77
2022/12/15 05:57:02;;;;;;;;;;;-4.50;99.90;;;;;;5075386;28;20371;-77
2022/12/15 05:59:28;;;;;;;;;;;-4.60;99.90;;;;;;5071798;28;19924;-77
2022/12/15 06:01:53;;;;;;;;;;;-4.60;99.90;;;;;;5062124;28;20287;-77
2022/12/15 06:04:19;;;;;;;;;;;-4.60;99.90;;;;;;5065259;28;19925;-80
2022/12/15 06:06:44;;;;;;;;;;;-4.60;99.90;;;;;;5058059;28;19932;-78
2022/12/15 06:09:10;;;;;;;;;;;-4.60;99.90;;;;;;5072488;28;20047;-77
2022/12/15 06:11:36;;;;;;;;;;;-4.60;99.90;;;;;;5056180;28;19978;-80
2022/12/15 06:14:02;;;;;;;;;;;-4.70;99.90;;;;;;5068328;28;20271;-77
2022/12/15 06:16:28;;;;;;;;;;;-4.60;99.90;;;;;;5062385;28;19925;-77
2022/12/15 06:18:55;;;;;;;;;;;-4.70;99.90;;;;;;5067390;28;19947;-76
2022/12/15 06:21:22;;;;;;;;;;;-4.60;99.90;;;;;;5071542;28;20015;-78
2022/12/15 06:23:48;;;;;;;;;;;-4.60;99.90;;;;;;5071155;28;19924;-77
2022/12/15 06:26:21;;;;;;;;;;;-4.70;99.90;;;;;;5062782;28;19958;-77
2022/12/15 06:28:48;;;;;;;;;;;-4.70;99.90;;;;;;5053870;28;19924;-77
2022/12/15 06:31:14;;;;;;;;;;;-4.70;99.90;;;;;;5073713;28;20406;-78
2022/12/15 06:33:40;;;;;;;;;;;-4.70;99.90;;;;;;5073626;28;19924;-78
2022/12/15 06:36:07;;;;;;;;;;;-4.60;99.90;;;;;;5058078;28;20280;-78
2022/12/15 06:38:33;;;;;;;;;;;-4.60;99.90;;;;;;5066313;28;19928;-78
2022/12/15 06:40:59;;;;;;;;;;;-4.60;99.90;;;;;;5072337;28;20451;-78
2022/12/15 06:43:25;;;;;;;;;;;-4.60;99.90;;;;;;5080884;28;19924;-78
2022/12/15 06:45:51;;;;;;;;;;;-4.60;99.90;;;;;;5064837;28;20267;-78
2022/12/15 06:48:19;;;;;;;;;;;-4.60;99.90;;;;;;5062795;28;19925;-78
2022/12/15 06:50:45;;;;;;;;;;;-4.60;99.90;;;;;;5072600;28;20314;-78
2022/12/15 06:53:11;;;;;;;;;;;-4.60;99.90;;;;;;5073424;28;19925;-83
2022/12/15 06:55:37;;;;;;;;;;;-4.50;99.90;;;;;;5074141;28;19931;-78
2022/12/15 06:58:02;;;;;;;;;;;-4.50;99.90;;;;;;5074304;28;20035;-77
2022/12/15 07:00:28;;;;;;;;;;;-4.40;99.90;;;;;;5074882;28;19975;-79
2022/12/15 07:02:54;;;;;;;;;;;-4.40;99.90;;;;;;5072791;28;19925;-79
2022/12/15 07:05:20;;;;;;;;;;;-4.40;99.90;;;;;;5066353;28;19925;-78
2022/12/15 07:07:46;;;;;;;;;;;-4.40;99.90;;;;;;5085055;28;19954;-78
2022/12/15 07:10:11;;;;;;;;;;;-4.40;99.90;;;;;;5106765;28;19925;-78
2022/12/15 07:12:37;;;;;;;;;;;-4.40;99.90;;;;;;5072696;28;19974;-78
2022/12/15 07:15:03;;;;;;;;;;;-4.40;99.90;;;;;;5072467;28;20335;-79
2022/12/15 07:17:28;;;;;;;;;;;-4.40;99.90;;;;;;5073261;28;20019;-77
2022/12/15 07:19:54;;;;;;;;;;;-4.40;99.90;;;;;;5073600;28;20061;-78
2022/12/15 07:22:20;;;;;;;;;;;-4.40;99.90;;;;;;5088234;28;19925;-77
2022/12/15 07:24:46;;;;;;;;;;;-4.30;99.90;;;;;;5062402;28;20286;-78
2022/12/15 07:27:12;;;;;;;;;;;-4.30;99.90;;;;;;5055390;28;19925;-77
2022/12/15 07:29:38;;;;;;;;;;;-4.30;99.90;;;;;;5069802;28;19924;-77
2022/12/15 07:32:03;;;;;;;;;;;-4.20;99.90;;;;;;5066642;28;20023;-77
2022/12/15 07:34:29;;;;;;;;;;;-4.20;99.90;;;;;;5067806;28;19925;-78
2022/12/15 07:36:54;;;;;;;;;;;-4.00;99.90;;;;;;5065559;28;19924;-78
2022/12/15 07:39:20;;;;;;;;;;;-4.00;99.90;;;;;;5066956;28;19931;-80
2022/12/15 07:41:46;;;;;;;;;;;-4.00;99.90;;;;;;5066372;28;19950;-78
2022/12/15 07:44:11;;;;;;;;;;;-3.90;99.90;;;;;;5070226;28;19924;-78
2022/12/15 07:46:37;;;;;;;;;;;-3.80;99.90;;;;;;5064766;28;19986;-78
2022/12/15 07:49:02;;;;;;;;;;;-3.70;99.90;;;;;;5067800;28;20438;-78
2022/12/15 07:51:28;;;;;;;;;;;-3.60;99.90;;;;;;5071346;28;19951;-78
2022/12/15 07:53:53;;;;;;;;;;;-3.50;99.90;;;;;;5090589;28;19929;-78
2022/12/15 07:56:19;;;;;;;;;;;-3.40;99.90;;;;;;5071374;28;20276;-78
2022/12/15 07:58:45;;;;;;;;;;;-3.40;99.90;;;;;;5073815;28;20402;-81
2022/12/15 08:01:12;;;;;;;;;;;-3.30;99.90;;;;;;5066517;28;19928;-81
2022/12/15 08:03:37;;;;;;;;;;;-3.20;99.90;;;;;;5064254;28;19931;-78
2022/12/15 08:06:04;;;;;;;;;;;-3.20;99.90;;;;;;5066070;28;19933;-78
2022/12/15 08:08:30;;;;;;;;;;;-3.10;99.90;;;;;;5071402;28;19924;-77
2022/12/15 08:10:55;;;;;;;;;;;-3.10;99.90;;;;;;5071626;28;19931;-78
2022/12/15 08:13:21;;;;;;;;;;;-3.10;99.90;;;;;;5062738;28;19948;-79
2022/12/15 08:15:46;;;;;;;;;;;-3.10;99.90;;;;;;5071504;28;19935;-81
2022/12/15 08:18:12;;;;;;;;;;;-3.10;99.90;;;;;;5063147;28;19925;-78
2022/12/15 08:20:38;;;;;;;;;;;-3.10;99.90;;;;;;5061778;28;20428;-77
2022/12/15 08:23:03;;;;;;;;;;;-3.10;99.90;;;;;;5066985;28;19936;-78
2022/12/15 08:25:29;;;;;;;;;;;-3.20;99.90;;;;;;5067786;28;19925;-78
2022/12/15 08:27:55;;;;;;;;;;;-3.10;99.90;;;;;;5071825;28;19928;-78
2022/12/15 08:30:21;;;;;;;;;;;-3.20;99.90;;;;;;5063527;28;19950;-79
2022/12/15 08:32:46;;;;;;;;;;;-3.10;99.90;;;;;;5066696;28;19925;-78
2022/12/15 08:35:12;;;;;;;;;;;-3.20;99.90;;;;;;5068857;28;20283;-79
2022/12/15 08:37:38;;;;;;;;;;;-3.20;99.90;;;;;;5067077;28;19925;-77
2022/12/15 08:40:04;;;;;;;;;;;-3.10;99.90;;;;;;5068959;28;19932;-79
2022/12/15 08:42:33;;;;;;;;;;;-3.10;99.90;;;;;;5061485;28;19928;-78
2022/12/15 08:44:59;;;;;;;;;;;-3.10;99.90;;;;;;5087004;28;20011;-77
2022/12/15 08:47:24;;;;;;;;;;;-3.10;99.90;;;;;;5066160;28;19940;-78
2022/12/15 08:49:51;;;;;;;;;;;-3.00;99.90;;;;;;5070491;28;19932;-77
2022/12/15 08:52:17;;;;;;;;;;;-2.90;99.90;;;;;;5052563;28;20019;-80
2022/12/15 08:54:42;;;;;;;;;;;-2.80;99.90;;;;;;5048708;28;20235;-80
2022/12/15 08:57:08;;;;;;;;;;;-2.70;99.90;;;;;;5064329;28;19929;-79
2022/12/15 08:59:33;;;;;;;;;;;-2.70;99.90;;;;;;5066637;28;19929;-80
2022/12/15 09:02:00;;;;;;;;;;;-2.50;99.90;;;;;;5045486;28;19931;-78
2022/12/15 09:04:25;;;;;;;;;;;-2.50;99.90;;;;;;5049206;28;19932;-80
2022/12/15 09:06:51;;;;;;;;;;;-2.30;99.90;;;;;;5057999;28;19929;-78
2022/12/15 09:09:16;;;;;;;;;;;-2.00;99.90;;;;;;5071202;28;19935;-77
2022/12/15 09:11:42;;;;;;;;;;;-1.80;99.90;;;;;;5055462;28;19935;-77
2022/12/15 09:14:07;;;;;;;;;;;-1.60;99.90;;;;;;5061730;28;19924;-78
2022/12/15 09:16:33;;;;;;;;;;;-1.10;99.90;;;;;;5069705;28;20011;-78
2022/12/15 09:18:59;;;;;;;;;;;-0.90;99.90;;;;;;5066769;28;20295;-77
2022/12/15 09:21:26;;;;;;;;;;;-0.80;99.90;;;;;;5071507;28;19932;-77
2022/12/15 09:23:52;;;;;;;;;;;-0.80;99.90;;;;;;5072307;28;20039;-78
2022/12/15 09:26:19;;;;;;;;;;;-0.80;99.90;;;;;;5071268;28;19932;-78
2022/12/15 09:28:45;;;;;;;;;;;-0.60;99.90;;;;;;5067477;28;19925;-78
2022/12/15 09:31:15;;;;;;;;;;;-0.20;99.90;;;;;;5058325;28;20023;-78
2022/12/15 09:33:42;;;;;;;;;;;0.20;99.90;;;;;;5060356;28;20639;-78
2022/12/15 09:36:08;;;;;;;;;;;0.40;99.90;;;;;;5058147;28;19932;-78
2022/12/15 09:38:34;;;;;;;;;;;0.70;99.90;;;;;;5044290;28;19995;-78
2022/12/15 09:41:12;;;;;;;;;;;0.80;99.90;;;;;;5065908;28;20363;-79
2022/12/15 09:43:58;;;;;;;;;;;0.80;99.90;;;;;;5057975;28;19936;-77
2022/12/15 09:46:43;;;;;;;;;;;0.50;99.90;;;;;;5067295;28;19990;-78
2022/12/15 09:49:28;;;;;;;;;;;0.20;99.90;;;;;;5068153;28;19929;-77
2022/12/15 09:52:05;;;;;;;;;;;0.00;99.90;;;;;;5081575;28;19972;-78
2022/12/15 09:54:31;;;;;;;;;;;-0.20;99.90;;;;;;5059157;28;19925;-78
2022/12/15 09:56:59;;;;;;;;;;;-0.20;99.90;;;;;;5069129;28;19931;-78
2022/12/15 09:59:31;;;;;;;;;;;-0.30;99.90;;;;;;5068419;28;19931;-78
2022/12/15 10:01:59;;;;;;;;;;;-0.30;99.90;;;;;;5066492;28;20367;-78
2022/12/15 10:04:32;;;;;;;;;;;-0.30;99.90;;;;;;5065446;28;20294;-77
2022/12/15 10:07:02;;;;;;;;;;;-0.30;99.90;;;;;;5108511;28;19932;-77
2022/12/15 10:09:29;;;;;;;;;;;-0.30;99.90;;;;;;5060612;28;20395;-78
2022/12/15 10:11:57;;;;;;;;;;;-0.20;99.90;;;;;;5067254;28;20340;-80
2022/12/15 10:14:36;;;;;;;;;;;-0.20;99.90;;;;;;5074366;28;19973;-78
2022/12/15 10:17:02;;;;;;;;;;;-0.10;99.90;;;;;;5090788;28;20362;-77
2022/12/15 10:19:32;;;;;;;;;;;-0.10;99.90;;;;;;5049690;28;19924;-77
2022/12/15 10:21:57;;;;;;;;;;;0.00;99.90;;;;;;5057020;28;19978;-77
2022/12/15 10:24:24;;;;;;;;;;;0.10;99.90;;;;;;5066997;28;20012;-77
2022/12/15 10:27:10;;;;;;;;;;;0.00;99.90;;;;;;5068312;28;19951;-77
2022/12/15 10:29:41;;;;;;;;;;;0.00;99.90;;;;;;5068232;28;19983;-79
2022/12/15 10:32:12;;;;;;;;;;;0.00;99.90;;;;;;5073461;28;19954;-78
2022/12/15 10:34:39;;;;;;;;;;;0.00;99.90;;;;;;5063136;28;19925;-77
2022/12/15 10:37:05;;;;;;;;;;;0.10;99.90;;;;;;5060499;28;20351;-77
2022/12/15 10:39:41;;;;;;;;;;;0.30;99.90;;;;;;5068203;28;19939;-77
2022/12/15 10:42:13;;;;;;;;;;;0.30;99.90;;;;;;5072208;28;20011;-77
2022/12/15 10:44:40;;;;;;;;;;;0.30;99.90;;;;;;5060287;28;19947;-77
2022/12/15 10:47:25;;;;;;;;;;;0.40;99.90;;;;;;5074792;28;20367;-77
2022/12/15 10:49:51;;;;;;;;;;;0.30;99.90;;;;;;5061969;28;20023;-77
2022/12/15 10:52:17;;;;;;;;;;;0.30;99.90;;;;;;5068228;28;19929;-78
2022/12/15 10:54:44;;;;;;;;;;;0.20;99.90;;;;;;5042551;28;19933;-76
2022/12/15 10:57:30;;;;;;;;;;;0.40;99.90;;;;;;5096716;28;20068;-77
2022/12/15 11:00:17;;;;;;;;;;;0.30;99.90;;;;;;5056205;28;20011;-78
2022/12/15 11:02:43;;;;;;;;;;;0.40;99.90;;;;;;5072868;28;19924;-77
2022/12/15 11:05:15;;;;;;;;;;;0.40;99.90;;;;;;5067791;28;20398;-77
2022/12/15 11:07:40;;;;;;;;;;;0.50;99.90;;;;;;5062913;28;20348;-81
2022/12/15 11:10:25;;;;;;;;;;;0.60;99.90;;;;;;5061277;28;20010;-77
2022/12/15 11:12:56;;;;;;;;;;;0.60;99.90;;;;;;5059405;28;19949;-82
2022/12/15 11:15:21;;;;;;;;;;;0.80;99.90;;;;;;5084501;28;19932;-78
2022/12/15 11:17:54;;;;;;;;;;;0.90;99.90;;;;;;5070002;28;19928;-77
2022/12/15 11:20:26;;;;;;;;;;;1.00;99.90;;;;;;5067170;28;20447;-77
2022/12/15 11:22:59;;;;;;;;;;;1.10;99.90;;;;;;5067649;28;20379;-78
2022/12/15 11:25:37;;;;;;;;;;;1.30;99.90;;;;;;5101349;28;19955;-77
2022/12/15 11:28:08;;;;;;;;;;;1.40;99.90;;;;;;5053964;28;19939;-77
2022/12/15 11:30:41;;;;;;;;;;;1.50;99.90;;;;;;5069176;28;19932;-78
2022/12/15 11:33:08;;;;;;;;;;;1.40;99.90;;;;;;5072481;28;19929;-77
2022/12/15 11:35:56;;;;;;;;;;;1.30;99.90;;;;;;5071156;28;19928;-77
2022/12/15 11:38:31;;;;;;;;;;;1.20;99.90;;;;;;5054290;28;19928;-77
2022/12/15 11:41:00;;;;;;;;;;;1.20;99.90;;;;;;5073834;28;19932;-79
2022/12/15 11:43:31;;;;;;;;;;;1.20;99.90;;;;;;5064025;28;19924;-81
2022/12/15 11:46:11;;;;;;;;;;;1.10;99.90;;;;;;5075391;28;19940;-76
2022/12/15 11:48:41;;;;;;;;;;;1.20;99.90;;;;;;5068585;28;19925;-77
2022/12/15 11:51:13;;;;;;;;;;;1.20;99.90;;;;;;5090062;28;19928;-77
2022/12/15 11:53:57;;;;;;;;;;;1.30;99.90;;;;;;5072173;28;19925;-77
2022/12/15 11:56:23;;;;;;;;;;;1.30;99.90;;;;;;5068915;28;19924;-77
2022/12/15 11:58:57;;;;;;;;;;;1.40;99.90;;;;;;5063726;28;19943;-77
2022/12/15 12:01:34;;;;;;;;;;;1.40;99.90;;;;;;5072298;28;20269;-77
2022/12/15 12:04:19;;;;;;;;;;;1.40;99.90;;;;;;5068088;28;19936;-77
2022/12/15 12:06:45;;;;;;;;;;;1.30;99.90;;;;;;5091216;28;19925;-76
2022/12/15 12:09:10;;;;;;;;;;;1.30;99.90;;;;;;5054159;28;19931;-79
2022/12/15 12:11:44;;;;;;;;;;;1.30;99.90;;;;;;5066478;28;19924;-77
2022/12/15 12:14:28;;;;;;;;;;;1.30;99.90;;;;;;5054270;28;19929;-78
2022/12/15 12:17:10;;;;;;;;;;;1.40;99.90;;;;;;5068782;28;20414;-78
2022/12/15 12:19:47;;;;;;;;;;;1.50;99.90;;;;;;5062477;28;19928;-77
2022/12/15 12:22:22;;;;;;;;;;;1.60;99.90;;;;;;5070558;28;19928;-77
2022/12/15 12:24:51;;;;;;;;;;;1.60;99.90;;;;;;5077096;28;19935;-78
2022/12/15 12:27:23;;;;;;;;;;;1.60;99.90;;;;;;5073114;28;20340;-76
2022/12/15 12:29:51;;;;;;;;;;;1.60;99.90;;;;;;5073277;28;19924;-77
2022/12/15 12:32:17;;;;;;;;;;;1.70;99.90;;;;;;5073005;28;19924;-77
2022/12/15 12:35:01;;;;;;;;;;;1.60;99.90;;;;;;5073624;28;19958;-77
2022/12/15 12:37:35;;;;;;;;;;;1.70;99.90;;;;;;5075752;28;20279;-78
2022/12/15 12:40:04;;;;;;;;;;;1.80;99.90;;;;;;5077816;28;19925;-80
2022/12/15 12:42:40;;;;;;;;;;;1.90;99.90;;;;;;5045052;28;20015;-77
2022/12/15 12:45:10;;;;;;;;;;;2.00;99.90;;;;;;5066618;28;19928;-77
2022/12/15 12:47:39;;;;;;;;;;;2.10;99.90;;;;;;5070418;28;19925;-78
2022/12/15 12:50:21;;;;;;;;;;;2.00;99.90;;;;;;5083380;28;19928;-77
2022/12/15 12:53:07;;;;;;;;;;;2.10;99.90;;;;;;5072638;28;19925;-77
2022/12/15 12:55:40;;;;;;;;;;;2.10;99.90;;;;;;5071925;28;19940;-77
2022/12/15 12:58:28;;;;;;;;;;;2.20;99.90;;;;;;5053951;28;20350;-77
2022/12/15 13:01:26;;;;;;;;;;;2.20;99.90;;;;;;5074200;28;19928;-77
2022/12/15 13:04:05;;;;;;;;;;;2.20;99.90;;;;;;5028068;28;19929;-77
2022/12/15 13:06:33;;;;;;;;;;;2.30;99.90;;;;;;5066544;28;19987;-77
2022/12/15 13:09:19;;;;;;;;;;;2.30;99.90;;;;;;5053511;28;20307;-77
2022/12/15 13:11:47;;;;;;;;;;;2.30;99.90;;;;;;5074807;28;20421;-77
2022/12/15 13:14:15;;;;;;;;;;;2.30;99.90;;;;;;5081741;28;19938;-77
2022/12/15 13:16:40;;;;;;;;;;;2.30;99.90;;;;;;5073478;28;19928;-77
2022/12/15 13:19:07;;;;;;;;;;;2.30;99.90;;;;;;5072519;28;19932;-77
2022/12/15 13:21:44;;;;;;;;;;;2.20;99.90;;;;;;5072497;28;20012;-77
2022/12/15 13:24:28;;;;;;;;;;;2.20;99.90;;;;;;5070774;28;20023;-78
2022/12/15 13:27:03;;;;;;;;;;;2.10;99.90;;;;;;5057356;28;19933;-77
2022/12/15 13:29:28;;;;;;;;;;;2.10;99.90;;;;;;5058317;28;20310;-77
2022/12/15 13:31:54;;;;;;;;;;;2.10;99.90;;;;;;5054653;28;19928;-77
2022/12/15 13:34:21;;;;;;;;;;;2.10;99.90;;;;;;5069591;28;19932;-77
2022/12/15 13:36:48;;;;;;;;;;;2.10;99.90;;;;;;5063830;28;19928;-77
2022/12/15 13:39:17;;;;;;;;;;;2.20;99.90;;;;;;5059669;28;19935;-77
2022/12/15 13:41:45;;;;;;;;;;;2.00;99.90;;;;;;5066579;28;19931;-77
2022/12/15 13:44:31;;;;;;;;;;;2.00;99.90;;;;;;5054852;28;19991;-77
2022/12/15 13:47:08;;;;;;;;;;;2.00;99.90;;;;;;5055134;28;19928;-77
2022/12/15 13:50:06;;;;;;;;;;;2.00;99.90;;;;;;5075157;28;19924;-77
2022/12/15 13:52:32;;;;;;;;;;;2.00;99.90;;;;;;5027585;28;20070;-77
2022/12/15 13:54:59;;;;;;;;;;;2.00;99.90;;;;;;5072306;28;20015;-77
2022/12/15 13:57:25;;;;;;;;;;;2.00;99.90;;;;;;5081540;28;19929;-78
2022/12/15 13:59:55;;;;;;;;;;;1.90;99.90;;;;;;5061880;28;20390;-78
2022/12/15 14:02:31;;;;;;;;;;;1.90;99.90;;;;;;5064217;28;19929;-78
2022/12/15 14:05:16;;;;;;;;;;;1.80;99.90;;;;;;5070369;28;19924;-77
2022/12/15 14:07:44;;;;;;;;;;;1.80;99.90;;;;;;5066023;28;20233;-78
2022/12/15 14:10:28;;;;;;;;;;;1.80;99.90;;;;;;5084451;28;19936;-78
2022/12/15 14:12:56;;;;;;;;;;;1.70;99.90;;;;;;5070426;28;19928;-78
2022/12/15 14:15:24;;;;;;;;;;;1.60;99.90;;;;;;5074972;28;19925;-77
2022/12/15 14:17:51;;;;;;;;;;;1.60;99.90;;;;;;5062080;28;19976;-78
2022/12/15 14:20:18;;;;;;;;;;;1.60;99.90;;;;;;5071105;28;19924;-80
2022/12/15 14:22:44;;;;;;;;;;;1.50;99.90;;;;;;5073187;28;20255;-78
2022/12/15 14:25:28;;;;;;;;;;;1.50;99.90;;;;;;5037342;28;19939;-78
2022/12/15 14:27:54;;;;;;;;;;;1.50;99.90;;;;;;5066953;28;19985;-79
2022/12/15 14:30:22;;;;;;;;;;;1.40;99.90;;;;;;5053534;28;20011;-78
2022/12/15 14:33:14;;;;;;;;;;;1.50;99.90;;;;;;5074177;28;20307;-77
2022/12/15 14:35:44;;;;;;;;;;;1.30;99.90;;;;;;5068912;28;20386;-79
2022/12/15 14:38:13;;;;;;;;;;;1.30;99.90;;;;;;5057643;28;19932;-79
2022/12/15 14:40:41;;;;;;;;;;;1.30;99.90;;;;;;5068424;28;19925;-78
2022/12/15 14:43:10;;;;;;;;;;;1.20;99.90;;;;;;5074258;28;20306;-78
2022/12/15 14:45:36;;;;;;;;;;;1.30;99.90;;;;;;5067268;28;20288;-78
2022/12/15 14:48:05;;;;;;;;;;;1.20;99.90;;;;;;5055805;28;19992;-79
2022/12/15 14:50:31;;;;;;;;;;;1.20;99.90;;;;;;5067485;28;20279;-78
2022/12/15 14:53:00;;;;;;;;;;;1.20;99.90;;;;;;5055935;28;20025;-78
2022/12/15 14:55:29;;;;;;;;;;;1.10;99.90;;;;;;5074921;28;20474;-78
2022/12/15 14:57:54;;;;;;;;;;;1.00;99.90;;;;;;5057191;28;19931;-77
2022/12/15 15:00:24;;;;;;;;;;;1.10;99.90;;;;;;5055404;28;19981;-79
2022/12/15 15:03:08;;;;;;;;;;;0.90;99.90;;;;;;5073725;28;19924;-78
2022/12/15 15:05:37;;;;;;;;;;;0.90;99.90;;;;;;5057014;28;19974;-80
2022/12/15 15:08:03;;;;;;;;;;;0.80;99.90;;;;;;5059352;28;19939;-78
2022/12/15 15:10:28;;;;;;;;;;;0.70;99.90;;;;;;5072196;28;20378;-78
2022/12/15 15:12:54;;;;;;;;;;;0.70;99.90;;;;;;5066448;28;19925;-78
2022/12/15 15:15:23;;;;;;;;;;;0.70;99.90;;;;;;5073285;28;19955;-79
2022/12/15 15:17:56;;;;;;;;;;;0.70;99.90;;;;;;5065531;28;19925;-78
2022/12/15 15:20:25;;;;;;;;;;;0.60;99.90;;;;;;5070470;28;19929;-78
2022/12/15 15:23:20;;;;;;;;;;;0.60;99.90;;;;;;5068314;28;19929;-78
2022/12/15 15:25:50;;;;;;;;;;;0.50;99.90;;;;;;5065534;28;19978;-79
2022/12/15 15:28:16;;;;;;;;;;;0.40;99.90;;;;;;5068567;28;19979;-80
2022/12/15 15:30:43;;;;;;;;;;;0.40;99.90;;;;;;5077400;28;19924;-78
2022/12/15 15:33:10;;;;;;;;;;;0.30;99.90;;;;;;5077414;28;19925;-78
2022/12/15 15:35:35;;;;;;;;;;;0.20;99.90;;;;;;5075945;28;19977;-78
2022/12/15 15:38:04;;;;;;;;;;;0.10;99.90;;;;;;5066870;28;20011;-78
2022/12/15 15:40:29;;;;;;;;;;;0.00;99.90;;;;;;5068278;28;19925;-78
2022/12/15 15:42:55;;;;;;;;;;;0.00;99.90;;;;;;5055167;28;19932;-78
2022/12/15 15:45:21;;;;;;;;;;;-0.10;99.90;;;;;;5069693;28;20423;-78
2022/12/15 15:47:48;;;;;;;;;;;-0.30;99.90;;;;;;5057354;28;20338;-78
2022/12/15 15:50:16;;;;;;;;;;;-0.20;99.90;;;;;;5072891;28;19932;-78
2022/12/15 15:52:42;;;;;;;;;;;-0.30;99.90;;;;;;5072618;28;20372;-78
2022/12/15 15:55:12;;;;;;;;;;;-0.30;99.90;;;;;;5062812;28;19968;-77
2022/12/15 15:57:38;;;;;;;;;;;-0.30;99.90;;;;;;5067554;28;19928;-78
2022/12/15 16:00:14;;;;;;;;;;;-0.30;99.90;;;;;;5073608;28;20384;-79
2022/12/15 16:02:40;;;;;;;;;;;-0.30;99.90;;;;;;5072343;28;19924;-77
2022/12/15 16:05:06;;;;;;;;;;;-0.30;99.90;;;;;;5073104;28;19928;-80
2022/12/15 16:07:31;;;;;;;;;;;-0.40;99.90;;;;;;5058618;28;19970;-77
2022/12/15 16:09:57;;;;;;;;;;;-0.40;99.90;;;;;;5071488;28;19960;-78
2022/12/15 16:12:26;;;;;;;;;;;-0.40;99.90;;;;;;5063936;28;19936;-78
2022/12/15 16:14:52;;;;;;;;;;;-0.50;99.90;;;;;;5069840;28;20441;-78
2022/12/15 16:17:17;;;;;;;;;;;-0.50;99.90;;;;;;5069443;28;19924;-79
2022/12/15 16:19:43;;;;;;;;;;;-0.50;99.90;;;;;;5063430;28;19951;-81
2022/12/15 16:22:13;;;;;;;;;;;-0.50;99.90;;;;;;5067596;28;19933;-77
2022/12/15 16:24:39;;;;;;;;;;;-0.30;99.90;;;;;;5072661;28;19924;-80
2022/12/15 16:27:05;;;;;;;;;;;-0.50;99.90;;;;;;5072505;28;19924;-80
2022/12/15 16:29:30;;;;;;;;;;;-0.40;99.90;;;;;;5064425;28;20224;-77
2022/12/15 16:31:56;;;;;;;;;;;-0.50;99.90;;;;;;5060566;28;20282;-82
2022/12/15 16:34:23;;;;;;;;;;;-0.40;99.90;;;;;;5067593;28;19924;-81
2022/12/15 16:36:49;;;;;;;;;;;-0.50;99.90;;;;;;5071098;28;20195;-79
2022/12/15 16:39:25;;;;;;;;;;;-0.50;99.90;;;;;;5070465;28;19925;-77
2022/12/15 16:41:52;;;;;;;;;;;-0.40;99.90;;;;;;5066501;28;19977;-78
2022/12/15 16:44:18;;;;;;;;;;;-0.40;99.90;;;;;;5074600;28;20350;-79
2022/12/15 16:46:44;;;;;;;;;;;-0.50;99.90;;;;;;5079371;28;19928;-78
2022/12/15 16:49:10;;;;;;;;;;;-0.40;99.90;;;;;;5055671;28;19964;-81
2022/12/15 16:51:38;;;;;;;;;;;-0.50;99.90;;;;;;5037927;28;20403;-81
2022/12/15 16:54:03;;;;;;;;;;;-0.50;99.90;;;;;;5067995;28;19968;-80
2022/12/15 16:56:29;;;;;;;;;;;-0.50;99.90;;;;;;5053083;28;20042;-78
2022/12/15 16:58:55;;;;;;;;;;;-0.60;99.90;;;;;;5073076;28;19974;-77